createdAt,value
2024-03-28T00:07:06.377Z,0
2024-03-28T00:19:08.249Z,0
2024-03-28T00:31:06.484Z,0
2024-03-28T00:43:06.448Z,0
2024-03-28T00:55:06.435Z,0
2024-03-28T01:07:07.705Z,1
2024-03-28T01:19:07.524Z,0
2024-03-28T01:31:06.471Z,1
2024-03-28T01:43:06.636Z,2
2024-03-28T01:55:06.592Z,3
2024-03-28T02:07:06.798Z,6
2024-03-28T02:19:06.727Z,2
2024-03-28T02:31:06.823Z,7
2024-03-28T02:43:06.616Z,3
2024-03-28T02:55:06.796Z,2
2024-03-28T03:07:06.760Z,4
2024-03-28T03:19:07.006Z,11
2024-03-28T03:31:06.851Z,2
2024-03-28T03:43:06.870Z,3
2024-03-28T03:55:06.858Z,1
2024-03-28T04:07:06.780Z,2
2024-03-28T04:19:06.896Z,0
2024-03-28T04:31:06.683Z,0
2024-03-28T04:43:07.050Z,1
2024-03-28T04:55:07.054Z,2
2024-03-28T05:07:06.732Z,1
2024-03-28T05:19:06.683Z,5
2024-03-28T05:31:07.048Z,2
2024-03-28T05:43:06.821Z,0
2024-03-28T05:55:06.768Z,3
2024-03-28T06:07:06.701Z,3
2024-03-28T06:19:07.357Z,2
2024-03-28T06:31:06.824Z,0
2024-03-28T06:43:06.805Z,6
2024-03-28T06:55:06.756Z,4
2024-03-28T07:07:06.929Z,9
2024-03-28T07:19:07.093Z,3
2024-03-28T07:31:06.866Z,13
2024-03-28T07:43:07.231Z,8
2024-03-28T07:55:06.919Z,11
2024-03-28T08:07:06.932Z,2
2024-03-28T08:19:07.119Z,7
2024-03-28T08:31:07.057Z,2
2024-03-28T08:43:06.986Z,6
2024-03-28T08:55:06.948Z,0
2024-03-28T09:07:07.302Z,10
2024-03-28T09:19:07.075Z,6
2024-03-28T09:31:08.654Z,9
2024-03-28T09:43:07.186Z,8
2024-03-28T09:55:07.141Z,2
2024-03-28T10:07:07.323Z,6
2024-03-28T10:19:07.042Z,12
2024-03-28T10:31:07.233Z,22
2024-03-28T10:43:07.148Z,6
2024-03-28T10:55:07.349Z,8
2024-03-28T11:07:07.215Z,7
2024-03-28T11:19:07.624Z,13
2024-03-28T11:31:07.146Z,8
2024-03-28T11:43:07.568Z,5
2024-03-28T11:55:07.314Z,22
2024-03-28T12:07:07.507Z,2
2024-03-28T12:19:07.190Z,9
2024-03-28T12:31:07.450Z,10
2024-03-28T12:43:07.118Z,1
2024-03-28T12:55:07.311Z,1
2024-03-28T13:07:07.218Z,4
2024-03-28T13:19:07.213Z,5
2024-03-28T13:31:07.587Z,0
2024-03-28T13:43:07.647Z,0
2024-03-28T13:55:07.854Z,2
2024-03-28T14:07:07.690Z,12
2024-03-28T14:19:07.962Z,3
2024-03-28T14:31:07.493Z,0
2024-03-28T14:43:07.389Z,5
2024-03-28T14:55:07.368Z,3
2024-03-28T15:07:07.340Z,3
2024-03-28T15:19:07.300Z,2
2024-03-28T15:31:07.490Z,2
2024-03-28T15:43:07.420Z,1
2024-03-28T15:55:07.326Z,1
2024-03-28T16:07:07.720Z,1
2024-03-28T16:19:08.029Z,1
2024-03-28T16:31:07.419Z,1
2024-03-28T16:43:07.983Z,2
2024-03-28T16:55:08.360Z,1
2024-03-28T17:07:07.456Z,0
2024-03-28T17:19:07.437Z,1
2024-03-28T17:31:07.390Z,0
2024-03-28T17:43:07.797Z,0
2024-03-28T17:55:08.056Z,0
2024-03-28T18:07:07.591Z,0
2024-03-28T18:19:07.546Z,0
2024-03-28T18:31:07.677Z,0
2024-03-28T18:43:07.849Z,0
2024-03-28T18:55:07.855Z,0
2024-03-28T19:07:07.555Z,0
2024-03-28T19:19:07.685Z,0
2024-03-28T19:31:07.588Z,1
2024-03-28T19:43:07.602Z,2
2024-03-28T19:55:07.876Z,6
2024-03-28T20:07:07.725Z,0
2024-03-28T20:19:07.658Z,0
2024-03-28T20:31:07.626Z,1
2024-03-28T20:43:08.024Z,0
2024-03-28T20:55:07.934Z,3
2024-03-28T21:07:07.941Z,0
2024-03-28T21:19:07.888Z,0
2024-03-28T21:31:08.044Z,0
2024-03-28T21:43:08.269Z,4
2024-03-28T21:55:08.309Z,7
2024-03-28T22:07:07.875Z,15
2024-03-28T22:19:07.834Z,14
2024-03-28T22:31:07.800Z,17
2024-03-28T22:43:07.764Z,16
2024-03-28T22:55:07.913Z,13
2024-03-28T23:07:07.861Z,14
2024-03-28T23:19:07.852Z,20
2024-03-28T23:31:07.779Z,26
2024-03-28T23:43:08.200Z,17
2024-03-28T23:55:07.878Z,20
